If you wish to contribute or participate in the discussions about articles you are invited to join SKYbrary as a registered user

 Actions

Amado Nervo National Airport

From SKYbrary Wiki

MMEP
Airport
ICAO: MMEP – IATA: TPQ
Summary
Name Amado Nervo National Airport
Region South America and Caribbean
Territory Mexico MX.gif
Location Tepic, Nayarit
Serving Tepic
Elevation 920.496 m
3,020 ft
3,020 ft920.496 m
Type medium airport
Coordinates 21° 25' 10.0308", -104° 50' 33.2916"
Runways
Designator Length Width Surface ROPS
2/20 2300 m7,545.932 ft 45 m147.638 ft ASP /
METAR
Observation MMEP 120150Z 12004KT 10SM SCT120 BKN250 16/14 A3009 RMK 8/038
Station Tepic, Nay.
Date/Time 12 December 2017 01:50:00
Wind direction 120°
Wind speed 04 kts
Lowest cloud amount scattered clouds
Temperature 16°C
Dew point 14°C
Humidity 87%
QNH hPa
Weather condition n/a

Amado Nervo national Airport or Tepic Airport is an international airport located at Tepic and the main airport in the Mexican state of Nayarit.

Climatology

Humid subtropical climate (Köppen climate classification Cwa)

Maps

Terrain

Loading map...

Airport Layout

Loading map...


Accidents & Serious Incidents at or in vicinity of MMEP

None on SKYbrary